Time;durP1;ratioP1;P1;durP2;ratioP2;P2;SDS_P1;SDS_P2;PMS_P1;PMS_P2;Temp;Humidity;BMP_temperature;BMP_pressure;BME280_temperature;BME280_humidity;BME280_pressure;Samples;Min_cycle;Max_cycle;Signal;HPM_P1;HPM_P2
2023/07/08 00:02:16;;;;;;;21.50;7.70;;;;;;;18.40;55.61;99540.34;135207;1281;22526;-76
2023/07/08 00:05:35;;;;;;;21.30;7.40;;;;;;;18.17;56.44;99537.30;135223;1281;22530;-77
2023/07/08 00:08:39;;;;;;;19.60;7.00;;;;;;;18.15;56.59;99535.66;135247;1281;25266;-77
2023/07/08 00:11:42;;;;;;;20.40;7.20;;;;;;;18.24;56.40;99535.10;135243;1281;24241;-76
2023/07/08 00:14:45;;;;;;;18.00;5.80;;;;;;;18.40;55.96;99537.20;135350;1281;22571;-75
2023/07/08 00:17:51;;;;;;;20.10;7.00;;;;;;;18.60;55.24;99541.23;135336;1281;25281;-74
2023/07/08 00:20:54;;;;;;;22.50;7.90;;;;;;;18.46;55.57;99541.07;135378;1281;25489;-73
2023/07/08 00:23:57;;;;;;;20.90;7.20;;;;;;;18.41;55.71;99541.38;135328;1281;22532;-77
2023/07/08 00:27:01;;;;;;;21.80;7.80;;;;;;;18.20;56.26;99538.80;135336;1281;22529;-74
2023/07/08 00:30:04;;;;;;;22.20;7.10;;;;;;;18.41;55.09;99540.13;135306;1281;23506;-73
2023/07/08 00:33:09;;;;;;;19.10;5.80;;;;;;;18.17;55.40;99539.54;135298;1281;22534;-74
2023/07/08 00:36:13;;;;;;;19.00;6.70;;;;;;;18.08;55.39;99539.56;135275;1281;24236;-72
2023/07/08 00:39:16;;;;;;;19.30;6.80;;;;;;;18.19;55.19;99539.59;135322;1280;22523;-73
2023/07/08 00:42:19;;;;;;;20.40;6.10;;;;;;;18.30;54.97;99542.73;135256;1281;22552;-73
2023/07/08 00:45:23;;;;;;;20.00;6.90;;;;;;;18.29;55.32;99543.20;135358;1281;25822;-75
2023/07/08 00:48:26;;;;;;;22.50;7.80;;;;;;;18.39;55.07;99542.20;135362;1281;25419;-74
2023/07/08 00:51:29;;;;;;;21.60;7.70;;;;;;;18.40;55.01;99537.55;135267;1281;22541;-75
2023/07/08 00:54:32;;;;;;;21.50;7.30;;;;;;;18.48;54.81;99533.11;135349;1262;22522;-68
2023/07/08 00:57:35;;;;;;;21.00;7.50;;;;;;;18.69;54.25;99528.38;135324;1280;22542;-67
2023/07/08 01:00:38;;;;;;;;;;;;;;;18.55;54.26;99529.73;135349;1281;25393;-66
2023/07/08 01:03:41;;;;;;;20.60;7.90;;;;;;;18.51;54.38;99524.82;135343;1281;22561;-77
2023/07/08 01:06:47;;;;;;;20.90;8.00;;;;;;;18.50;54.24;99524.46;135333;1281;22561;-72
2023/07/08 01:09:50;;;;;;;21.20;6.80;;;;;;;18.17;54.67;99524.69;135319;1281;22521;-74
2023/07/08 01:12:54;;;;;;;15.90;5.40;;;;;;;18.00;54.54;99523.61;71600;1281;1016377;-76
2023/07/08 01:15:58;;;;;;;20.30;5.80;;;;;;;17.87;54.60;99520.73;67630;1281;1016348;-71
2023/07/08 01:19:02;;;;;;;17.00;5.40;;;;;;;17.86;54.81;99522.38;67614;1281;1016422;-72
2023/07/08 01:22:05;;;;;;;13.70;4.80;;;;;;;17.85;54.54;99523.20;67581;1281;1017988;-72
2023/07/08 01:25:08;;;;;;;15.10;4.80;;;;;;;17.90;54.38;99525.09;67627;1281;1016487;-74
2023/07/08 01:28:11;;;;;;;17.40;5.30;;;;;;;17.86;54.19;99528.58;67634;1281;1016914;-73
2023/07/08 01:31:15;;;;;;;17.00;5.20;;;;;;;17.94;54.14;99530.79;67619;1281;1016281;-70
2023/07/08 01:34:19;;;;;;;20.40;5.90;;;;;;;18.48;52.95;99531.34;67624;1281;1016418;-74
2023/07/08 01:37:22;;;;;;;20.60;6.50;;;;;;;18.51;53.27;99527.23;67558;1281;1015963;-74
2023/07/08 01:40:28;;;;;;;17.10;5.70;;;;;;;18.63;52.81;99530.48;67628;1281;1016778;-74
2023/07/08 01:43:32;;;;;;;13.30;4.30;;;;;;;18.51;53.20;99528.65;67615;1281;1015790;-70
2023/07/08 01:46:36;;;;;;;15.20;5.40;;;;;;;18.60;52.75;99525.23;67660;1281;1016396;-69
2023/07/08 01:49:39;;;;;;;20.30;5.70;;;;;;;18.67;52.15;99523.42;67646;1281;1015853;-74
2023/07/08 01:52:41;;;;;;;17.20;5.40;;;;;;;18.68;51.92;99521.39;67653;1281;1016061;-74
2023/07/08 01:55:48;;;;;;;22.00;7.20;;;;;;;18.68;51.91;99520.70;67638;1281;1016464;-72
2023/07/08 01:58:50;;;;;;;21.40;6.50;;;;;;;17.77;54.56;99519.88;67591;1281;1016440;-69
2023/07/08 02:01:55;;;;;;;19.80;6.00;;;;;;;17.89;54.44;99518.77;67645;1281;1016177;-69
2023/07/08 02:04:58;;;;;;;22.10;6.80;;;;;;;18.15;54.11;99522.05;67571;1281;1016214;-69
2023/07/08 02:08:00;;;;;;;18.90;6.20;;;;;;;17.93;54.44;99520.92;67606;1281;1016479;-73
2023/07/08 02:11:04;;;;;;;20.10;6.70;;;;;;;17.92;53.84;99523.37;67645;1281;1016390;-75
2023/07/08 02:14:07;;;;;;;20.30;6.60;;;;;;;17.84;53.94;99523.26;67588;1281;1016369;-73
2023/07/08 02:17:09;;;;;;;23.70;6.70;;;;;;;17.76;54.54;99520.88;67627;1281;1016450;-73
2023/07/08 02:20:13;;;;;;;19.20;6.50;;;;;;;18.07;53.65;99519.33;67581;1281;1016323;-74
2023/07/08 02:23:17;;;;;;;17.50;6.10;;;;;;;18.30;52.69;99520.14;67601;1281;1016404;-72
2023/07/08 02:26:20;;;;;;;18.10;5.80;;;;;;;18.21;52.84;99521.00;67594;1281;1016630;-71
2023/07/08 02:29:23;;;;;;;24.70;6.60;;;;;;;18.22;52.91;99522.69;67617;1281;1018449;-74
2023/07/08 02:32:26;;;;;;;20.00;6.50;;;;;;;18.27;52.88;99520.52;67584;1281;1016355;-73
2023/07/08 02:35:29;;;;;;;22.10;6.60;;;;;;;18.07;53.36;99520.39;67592;1281;1016269;-74
2023/07/08 02:38:32;;;;;;;21.30;7.10;;;;;;;18.11;53.24;99516.17;67598;1281;1016327;-71
2023/07/08 02:41:36;;;;;;;19.00;6.30;;;;;;;18.25;53.00;99519.65;67609;1281;1016335;-76
2023/07/08 02:44:40;;;;;;;19.70;6.50;;;;;;;18.20;53.06;99518.81;67583;1281;1016275;-74
2023/07/08 02:47:43;;;;;;;;;;;;;;;18.32;52.87;99522.65;67621;1281;1016442;-76
2023/07/08 02:50:49;;;;;;;19.40;6.90;;;;;;;18.88;51.16;99524.52;67572;1281;1016079;-74
2023/07/08 02:53:55;;;;;;;18.40;6.50;;;;;;;18.09;52.78;99527.98;67573;1281;1016305;-73
2023/07/08 02:57:00;;;;;;;20.50;6.20;;;;;;;17.70;54.20;99527.39;67547;1281;1016294;-72
2023/07/08 03:00:06;;;;;;;18.20;6.20;;;;;;;18.38;52.32;99527.03;67541;1281;1015792;-74
2023/07/08 03:03:09;;;;;;;20.10;5.80;;;;;;;17.84;54.00;99527.86;67597;1281;1017543;-73
2023/07/08 03:06:14;;;;;;;18.30;5.80;;;;;;;17.89;53.99;99529.75;67579;1281;1016208;-74
2023/07/08 03:09:18;;;;;;;19.80;6.10;;;;;;;18.26;53.17;99531.58;67595;1281;1015965;-75
2023/07/08 03:12:21;;;;;;;17.10;5.90;;;;;;;18.29;53.40;99537.55;67589;1281;1016318;-75
2023/07/08 03:15:26;;;;;;;20.30;6.30;;;;;;;18.33;53.50;99538.65;67572;1281;1016675;-77
2023/07/08 03:18:38;;;;;;;16.70;5.60;;;;;;;18.75;52.62;99536.98;67574;1281;1018139;-73
2023/07/08 03:21:41;;;;;;;18.60;5.20;;;;;;;19.16;51.56;99535.84;67594;1281;1017732;-75
2023/07/08 03:24:46;;;;;;;15.20;5.20;;;;;;;19.24;51.53;99534.09;67639;1281;1016415;-75
2023/07/08 03:27:49;;;;;;;16.30;5.30;;;;;;;19.13;52.16;99532.90;67572;1281;1016389;-72
2023/07/08 03:30:51;;;;;;;16.10;4.90;;;;;;;19.43;51.65;99533.50;67582;1281;1016460;-72
2023/07/08 03:33:55;;;;;;;15.10;5.00;;;;;;;19.43;52.02;99533.55;67619;1281;1016348;-74
2023/07/08 03:36:58;;;;;;;19.60;5.90;;;;;;;20.16;50.39;99528.16;67620;1281;1016600;-74
2023/07/08 03:40:01;;;;;;;19.40;6.60;;;;;;;20.15;50.47;99530.98;67613;1281;1016603;-75
2023/07/08 03:43:05;;;;;;;19.60;6.40;;;;;;;20.48;49.85;99529.58;67576;1281;1016512;-72
2023/07/08 03:46:08;;;;;;;16.20;5.80;;;;;;;20.45;50.48;99524.36;67610;1281;1016418;-72
2023/07/08 03:49:11;;;;;;;17.10;5.70;;;;;;;20.95;49.90;99526.86;67610;1281;1016468;-75
2023/07/08 03:52:14;;;;;;;16.90;5.50;;;;;;;21.43;49.17;99525.44;67637;1281;1016504;-72
2023/07/08 03:55:18;;;;;;;21.80;5.80;;;;;;;20.77;50.69;99529.05;67611;1281;1016193;-72
2023/07/08 03:58:21;;;;;;;19.30;5.50;;;;;;;21.43;49.28;99529.34;67589;1281;1019523;-73
2023/07/08 04:01:24;;;;;;;;;;;;;;;21.73;49.23;99526.77;67583;1281;1016241;-73
2023/07/08 04:04:28;;;;;;;21.00;6.20;;;;;;;21.84;49.62;99524.92;67597;1281;1016856;-72
2023/07/08 04:07:32;;;;;;;19.90;6.40;;;;;;;22.08;49.34;99527.39;67631;1281;1016432;-69
2023/07/08 04:10:36;;;;;;;18.50;6.40;;;;;;;22.00;50.12;99524.83;67587;1281;1016227;-70
2023/07/08 04:13:39;;;;;;;17.60;6.00;;;;;;;22.19;50.04;99524.58;67582;1281;1016458;-69
2023/07/08 04:16:51;;;;;;;19.10;6.30;;;;;;;22.56;50.22;99519.79;65030;1281;6389285;-71
2023/07/08 04:19:56;;;;;;;19.40;7.10;;;;;;;23.09;49.21;99517.19;67574;1281;1016378;-72
2023/07/08 04:22:59;;;;;;;18.30;6.50;;;;;;;23.22;49.08;99519.75;67613;1281;1016155;-72
2023/07/08 04:26:05;;;;;;;21.20;7.00;;;;;;;23.73;48.17;99523.45;67620;1281;1016553;-73
2023/07/08 04:29:08;;;;;;;19.00;6.20;;;;;;;23.94;48.42;99524.66;67579;1281;1020069;-73
2023/07/08 04:32:10;;;;;;;;;;;;;;;23.80;48.70;99521.98;67608;1281;1016714;-73
2023/07/08 04:35:13;;;;;;;;;;;;;;;24.15;48.55;99522.64;67535;1281;1016437;-72
2023/07/08 04:38:16;;;;;;;23.00;7.30;;;;;;;24.49;48.26;99520.24;67604;1281;1016443;-71
2023/07/08 04:41:20;;;;;;;18.60;6.30;;;;;;;24.89;48.19;99521.09;67604;1281;1016363;-72
2023/07/08 04:44:24;;;;;;;18.10;6.50;;;;;;;25.36;47.78;99522.19;67591;1281;1016317;-72
2023/07/08 04:47:29;;;;;;;18.10;6.30;;;;;;;25.73;47.31;99511.17;67579;1281;1016457;-72
2023/07/08 04:50:33;;;;;;;18.10;6.60;;;;;;;25.96;47.12;99510.82;67634;1281;1016422;-72
2023/07/08 04:53:37;;;;;;;21.00;7.20;;;;;;;26.23;47.53;99510.02;67590;1281;1016283;-72
2023/07/08 04:56:40;;;;;;;22.30;7.50;;;;;;;26.41;47.46;99510.46;67620;1281;1016669;-73
2023/07/08 04:59:43;;;;;;;24.90;8.40;;;;;;;26.12;48.23;99513.09;67558;1281;1016475;-73
2023/07/08 05:02:49;;;;;;;23.90;8.60;;;;;;;26.49;47.30;99510.55;67610;1281;1016472;-73
2023/07/08 05:05:52;;;;;;;23.50;8.10;;;;;;;26.76;47.07;99517.64;67621;1281;1016625;-73
2023/07/08 05:08:55;;;;;;;22.00;8.40;;;;;;;27.34;46.56;99519.09;67550;1281;1016542;-73
2023/07/08 05:11:58;;;;;;;24.30;8.90;;;;;;;27.70;46.46;99518.23;67608;1281;1016394;-72
2023/07/08 05:15:04;;;;;;;25.20;9.60;;;;;;;27.86;46.21;99521.34;67569;1281;1015986;-73
2023/07/08 05:18:08;;;;;;;29.60;9.70;;;;;;;28.23;45.94;99519.94;67622;1281;1016530;-72
2023/07/08 05:21:11;;;;;;;23.50;9.40;;;;;;;28.58;45.51;99519.66;67589;1281;1016693;-72
2023/07/08 05:24:13;;;;;;;25.30;8.80;;;;;;;28.68;45.65;99515.73;67561;1281;1018349;-72
2023/07/08 05:27:20;;;;;;;22.70;9.80;;;;;;;29.01;45.04;99514.97;67626;1281;1016401;-72
2023/07/08 05:30:23;;;;;;;26.70;11.30;;;;;;;29.34;44.29;99513.08;67586;1281;1016312;-72
2023/07/08 05:33:27;;;;;;;35.00;15.30;;;;;;;29.76;43.36;99513.13;67595;1281;1015903;-72
2023/07/08 05:36:31;;;;;;;39.30;18.40;;;;;;;29.99;43.02;99510.52;67583;1281;1016318;-72
2023/07/08 05:39:34;;;;;;;37.80;17.50;;;;;;;30.44;42.36;99510.96;67620;1281;1017192;-72
2023/07/08 05:42:36;;;;;;;39.50;18.40;;;;;;;30.59;42.15;99511.27;67591;1281;1016691;-72
2023/07/08 05:45:40;;;;;;;34.90;17.00;;;;;;;30.63;42.11;99508.98;67631;1281;1016467;-72
2023/07/08 05:48:43;;;;;;;36.40;17.20;;;;;;;30.74;42.30;99501.58;67556;1281;1016520;-72
2023/07/08 05:52:10;;;;;;;24.60;10.50;;;;;;;31.54;39.89;99497.35;67595;1281;1016468;-72
2023/07/08 05:55:12;;;;;;;25.90;10.60;;;;;;;30.88;40.98;99492.02;67565;1281;1016503;-71
2023/07/08 05:58:15;;;;;;;26.70;11.30;;;;;;;31.78;40.12;99492.42;67579;1281;1018752;-71
2023/07/08 06:01:19;;;;;;;22.60;8.40;;;;;;;32.63;38.79;99494.41;67611;1281;1016270;-71
2023/07/08 06:04:22;;;;;;;22.40;8.10;;;;;;;33.08;37.79;99489.63;67565;1281;1019755;-71
2023/07/08 06:07:25;;;;;;;21.70;7.30;;;;;;;33.21;37.28;99486.94;67586;1281;1016090;-71
2023/07/08 06:10:29;;;;;;;19.70;7.30;;;;;;;33.59;36.13;99485.11;67602;1281;1016632;-71
2023/07/08 06:13:32;;;;;;;19.60;7.50;;;;;;;33.76;36.19;99488.67;67613;1281;1018659;-71
2023/07/08 06:16:39;;;;;;;18.50;6.10;;;;;;;33.75;36.16;99493.23;67608;1281;1016729;-71
2023/07/08 06:19:41;;;;;;;21.40;6.90;;;;;;;33.69;35.74;99493.95;67563;1281;1016503;-71
2023/07/08 06:22:45;;;;;;;17.70;5.50;;;;;;;33.64;35.18;99494.23;67606;1281;1016401;-71
2023/07/08 06:25:47;;;;;;;12.90;4.20;;;;;;;33.90;34.84;99492.59;67576;1281;1015996;-70
2023/07/08 06:28:50;;;;;;;16.10;4.00;;;;;;;33.75;34.26;99494.31;67639;1281;1016009;-70
2023/07/08 06:31:53;;;;;;;13.50;3.90;;;;;;;33.99;34.37;99493.71;67617;1281;1016358;-70
2023/07/08 06:34:58;;;;;;;16.40;4.00;;;;;;;34.33;33.45;99491.20;67595;1281;1016464;-71
2023/07/08 06:38:01;;;;;;;11.70;3.30;;;;;;;35.02;32.15;99492.56;67609;1281;1016308;-70
2023/07/08 06:41:04;;;;;;;14.50;3.90;;;;;;;35.30;31.99;99492.21;67573;1281;1016423;-70
2023/07/08 06:44:07;;;;;;;11.80;3.10;;;;;;;35.07;31.99;99487.61;67613;1281;1016187;-70
2023/07/08 06:47:11;;;;;;;10.30;3.50;;;;;;;34.74;32.92;99488.33;67608;1281;1016421;-70
2023/07/08 06:50:14;;;;;;;8.60;3.10;;;;;;;35.13;31.86;99482.14;67581;1281;1016381;-71
2023/07/08 06:53:17;;;;;;;9.80;2.70;;;;;;;35.59;30.09;99483.20;67587;1281;1016077;-71
2023/07/08 06:56:20;;;;;;;8.40;2.30;;;;;;;35.02;30.08;99484.39;67575;1281;1016067;-71
2023/07/08 06:59:24;;;;;;;10.50;2.80;;;;;;;33.17;32.66;99488.41;67611;1281;1016672;-71
2023/07/08 07:02:28;;;;;;;9.00;3.00;;;;;;;32.52;33.74;99492.08;67580;1281;1016376;-71
2023/07/08 07:05:30;;;;;;;8.40;2.70;;;;;;;32.64;32.59;99490.70;67613;1281;1016454;-73
2023/07/08 07:08:34;;;;;;;7.80;2.40;;;;;;;32.66;31.37;99488.80;67574;1281;1016485;-71
2023/07/08 07:11:37;;;;;;;9.60;2.90;;;;;;;32.56;30.40;99492.17;67595;1281;1016606;-71
2023/07/08 07:14:49;;;;;;;8.40;2.70;;;;;;;32.69;31.20;99490.57;67617;1281;1016814;-71
2023/07/08 07:17:53;;;;;;;9.40;2.80;;;;;;;33.21;30.45;99494.86;67616;1281;1016653;-72
2023/07/08 07:20:56;;;;;;;11.90;2.90;;;;;;;33.36;28.83;99492.86;67560;1281;1016750;-73
2023/07/08 07:24:00;;;;;;;8.40;3.20;;;;;;;32.97;28.82;99494.84;67606;1281;1016361;-73
2023/07/08 07:27:03;;;;;;;8.70;2.70;;;;;;;33.13;29.26;99493.30;67624;1281;1016727;-74
2023/07/08 07:30:05;;;;;;;7.40;2.40;;;;;;;32.66;28.03;99496.20;67580;1281;1017450;-73
2023/07/08 07:33:12;;;;;;;8.90;3.10;;;;;;;31.84;28.19;99495.08;67573;1281;1016492;-70
2023/07/08 07:36:15;;;;;;;5.70;2.50;;;;;;;32.04;27.54;99494.89;67581;1281;1016440;-70
2023/07/08 07:39:18;;;;;;;8.10;2.70;;;;;;;31.77;27.99;99495.45;67574;1281;1016242;-71
2023/07/08 07:42:21;;;;;;;5.00;2.30;;;;;;;33.07;26.60;99487.05;67603;1281;1016432;-70
2023/07/08 07:45:24;;;;;;;5.30;2.30;;;;;;;33.44;26.22;99493.25;67604;1281;1016190;-70
2023/07/08 07:48:27;;;;;;;7.10;2.40;;;;;;;32.10;28.29;99498.85;67620;1281;1016780;-69
2023/07/08 07:51:33;;;;;;;5.60;2.30;;;;;;;32.72;28.74;99495.88;67605;1281;1016397;-70
2023/07/08 07:54:37;;;;;;;6.40;2.40;;;;;;;33.63;27.94;99493.75;67639;1281;1016319;-71
2023/07/08 07:57:41;;;;;;;7.40;2.40;;;;;;;33.74;26.81;99495.63;67621;1281;1016327;-70
2023/07/08 08:00:44;;;;;;;12.50;3.20;;;;;;;33.38;26.80;99496.14;67598;1281;1016245;-70
2023/07/08 08:03:52;;;;;;;7.40;2.80;;;;;;;33.75;25.96;99499.42;67591;1281;1016581;-71
2023/07/08 08:06:54;;;;;;;9.00;2.80;;;;;;;33.66;25.83;99502.29;67566;1281;1017363;-68
2023/07/08 08:09:57;;;;;;;8.70;2.60;;;;;;;33.06;25.53;99497.92;67580;1281;1016473;-67
2023/07/08 08:13:00;;;;;;;8.60;2.60;;;;;;;32.46;25.93;99493.50;67568;1281;1016283;-68
2023/07/08 08:16:04;;;;;;;13.60;3.00;;;;;;;32.53;26.92;99492.11;67580;1281;1016497;-68
2023/07/08 08:19:08;;;;;;;11.50;2.90;;;;;;;32.79;26.55;99493.63;67605;1281;1015992;-68
2023/07/08 08:22:15;;;;;;;7.00;2.60;;;;;;;32.85;25.84;99496.73;67634;1281;1016498;-68
2023/07/08 08:25:18;;;;;;;5.80;2.40;;;;;;;33.05;25.48;99495.58;67622;1281;1016574;-69
2023/07/08 08:28:28;;;;;;;5.70;2.30;;;;;;;33.28;25.38;99493.45;67604;1281;1016085;-68
2023/07/08 08:31:32;;;;;;;6.70;2.30;;;;;;;33.52;25.41;99492.81;67613;1281;1016870;-69
2023/07/08 08:34:35;;;;;;;6.50;2.50;;;;;;;33.95;25.15;99492.55;67577;1281;1016353;-67
2023/07/08 08:37:38;;;;;;;8.30;2.50;;;;;;;34.18;25.63;99488.98;67628;1281;1016310;-69
2023/07/08 08:40:42;;;;;;;6.90;2.40;;;;;;;34.44;24.87;99490.89;67613;1281;1016640;-69
2023/07/08 08:43:46;;;;;;;9.90;2.90;;;;;;;34.96;24.78;99486.46;67589;1281;1015962;-68
2023/07/08 08:46:52;;;;;;;11.80;2.80;;;;;;;34.88;24.20;99488.95;67570;1281;1016673;-70
2023/07/08 08:49:55;;;;;;;8.20;2.40;;;;;;;35.31;24.75;99488.09;67617;1281;1016324;-70
2023/07/08 08:52:58;;;;;;;7.40;2.20;;;;;;;34.94;23.64;99493.09;67592;1281;1016452;-72
2023/07/08 08:56:02;;;;;;;5.50;2.50;;;;;;;34.79;24.29;99489.95;67591;1281;1016480;-73
2023/07/08 08:59:04;;;;;;;8.60;2.60;;;;;;;34.96;24.49;99490.13;67567;1281;1016552;-72
2023/07/08 09:02:09;;;;;;;7.60;2.30;;;;;;;35.22;23.85;99488.85;67534;1281;1016485;-72
2023/07/08 09:05:12;;;;;;;4.60;2.40;;;;;;;34.91;23.79;99489.51;67606;1281;1016285;-72
2023/07/08 09:08:15;;;;;;;9.90;2.60;;;;;;;34.88;23.38;99491.80;67562;1281;1016476;-72
2023/07/08 09:11:18;;;;;;;8.70;2.60;;;;;;;34.66;23.07;99492.45;67591;1281;1016281;-72
2023/07/08 09:14:21;;;;;;;6.20;2.30;;;;;;;34.53;23.54;99491.05;67568;1281;1018497;-72
2023/07/08 09:17:26;;;;;;;5.10;2.40;;;;;;;34.94;23.82;99487.86;67636;1281;1016451;-72
2023/07/08 09:20:29;;;;;;;6.80;2.60;;;;;;;35.37;24.16;99487.98;67628;1257;1016172;-72
2023/07/08 09:23:32;;;;;;;11.10;2.60;;;;;;;35.36;24.32;99483.77;67633;1281;1016584;-71
2023/07/08 09:26:35;;;;;;;14.10;3.20;;;;;;;34.98;23.46;99486.96;67611;1281;1016113;-72
2023/07/08 09:29:38;;;;;;;7.70;2.50;;;;;;;35.16;23.80;99482.91;67574;1281;1016246;-71
2023/07/08 09:32:44;;;;;;;7.00;2.60;;;;;;;35.50;23.78;99480.52;67592;1281;1016338;-72
2023/07/08 09:35:48;;;;;;;6.90;2.70;;;;;;;35.82;23.16;99481.31;67565;1281;1016293;-71
2023/07/08 09:38:50;;;;;;;6.50;2.20;;;;;;;36.78;23.27;99478.94;67621;1281;1016490;-71
2023/07/08 09:41:53;;;;;;;5.20;2.60;;;;;;;37.30;22.01;99475.16;67592;1281;1016404;-71
2023/07/08 09:44:56;;;;;;;8.50;2.70;;;;;;;36.98;23.76;99475.80;67626;1281;1016725;-70
2023/07/08 09:48:01;;;;;;;7.60;2.40;;;;;;;37.69;23.23;99471.46;67623;1281;1016414;-71
2023/07/08 09:51:04;;;;;;;5.60;2.40;;;;;;;38.14;23.17;99475.34;67593;1281;1016478;-71
2023/07/08 09:54:07;;;;;;;9.00;2.60;;;;;;;37.86;21.71;99469.25;67543;1281;1016462;-71
2023/07/08 09:57:11;;;;;;;5.40;2.30;;;;;;;37.46;23.17;99467.59;67603;1281;1016472;-71
2023/07/08 10:00:15;;;;;;;10.10;3.00;;;;;;;37.78;22.48;99469.45;67575;1281;1016541;-71
2023/07/08 10:03:18;;;;;;;6.30;2.30;;;;;;;37.24;23.59;99470.64;67582;1281;1016361;-71
2023/07/08 10:06:21;;;;;;;8.00;2.60;;;;;;;37.87;23.41;99463.72;67616;1281;1016360;-71
2023/07/08 10:09:25;;;;;;;9.60;2.40;;;;;;;38.51;22.90;99467.29;67633;1281;1016380;-71
2023/07/08 10:12:28;;;;;;;9.70;2.80;;;;;;;38.39;22.87;99461.55;67611;1281;1016456;-71
2023/07/08 10:15:31;;;;;;;8.10;2.50;;;;;;;38.41;21.35;99467.10;67622;1281;1016486;-71
2023/07/08 10:18:33;;;;;;;7.50;2.60;;;;;;;37.69;20.66;99465.39;67578;1281;1018185;-71
2023/07/08 10:21:37;;;;;;;5.00;2.40;;;;;;;37.05;21.79;99464.27;67605;1281;1016409;-71
2023/07/08 10:24:40;;;;;;;9.10;2.80;;;;;;;37.43;21.18;99462.96;67590;1281;1018151;-71
2023/07/08 10:27:51;;;;;;;6.20;2.70;;;;;;;36.76;22.03;99462.11;67605;1281;1016470;-72
2023/07/08 10:30:54;;;;;;;8.20;2.60;;;;;;;36.56;21.49;99463.48;67602;1281;1016610;-72
2023/07/08 10:33:57;;;;;;;10.40;2.70;;;;;;;36.79;21.32;99461.53;67657;1281;1016258;-72
2023/07/08 10:37:01;;;;;;;7.20;2.30;;;;;;;36.61;21.04;99457.88;67584;1281;1016487;-73
2023/07/08 10:40:04;;;;;;;5.90;2.50;;;;;;;37.70;19.76;99456.83;67585;1281;1016323;-72
2023/07/08 10:43:08;;;;;;;9.00;2.60;;;;;;;36.75;21.49;99453.60;67557;1281;1016437;-72
2023/07/08 10:46:11;;;;;;;7.90;2.40;;;;;;;36.70;22.27;99450.11;67637;1281;1016522;-72
2023/07/08 10:49:14;;;;;;;7.50;2.60;;;;;;;36.76;21.57;99452.36;67576;1281;1019470;-72
2023/07/08 10:52:17;;;;;;;15.10;2.70;;;;;;;36.65;21.67;99451.53;67619;1281;1016455;-72
2023/07/08 10:55:20;;;;;;;6.30;2.50;;;;;;;36.15;22.00;99448.25;67601;1281;1016401;-72
2023/07/08 10:58:24;;;;;;;7.10;2.30;;;;;;;36.59;21.95;99445.10;67602;1281;1016073;-72
2023/07/08 11:01:27;;;;;;;7.80;2.40;;;;;;;37.46;21.77;99440.30;67641;1281;1016394;-72
2023/07/08 11:04:31;;;;;;;7.80;2.50;;;;;;;37.36;22.27;99435.02;67581;1281;1016436;-72
2023/07/08 11:07:34;;;;;;;9.50;3.00;;;;;;;37.95;21.98;99432.10;67588;1281;1016214;-72
2023/07/08 11:10:37;;;;;;;9.20;2.50;;;;;;;38.60;21.66;99430.59;67614;1281;1016265;-71
2023/07/08 11:13:41;;;;;;;6.80;2.20;;;;;;;39.17;20.60;99430.74;67609;1281;1016474;-72
2023/07/08 11:16:44;;;;;;;6.10;2.30;;;;;;;38.75;19.52;99426.77;67553;1281;1016118;-72
2023/07/08 11:19:49;;;;;;;5.30;2.30;;;;;;;38.53;19.51;99425.48;67620;1281;1016476;-72
2023/07/08 11:22:52;;;;;;;5.30;2.30;;;;;;;37.57;19.95;99423.84;67578;1281;1016592;-72
2023/07/08 11:25:54;;;;;;;5.40;2.40;;;;;;;37.60;21.48;99417.98;67610;1281;1019095;-72
2023/07/08 11:28:58;;;;;;;7.00;2.40;;;;;;;38.85;20.67;99408.52;67560;1281;1015887;-72
2023/07/08 11:32:01;;;;;;;9.40;2.30;;;;;;;38.06;21.29;99408.08;67657;1281;1016479;-72
2023/07/08 11:35:05;;;;;;;5.80;2.40;;;;;;;38.45;19.96;99413.11;67638;1281;1016556;-69
2023/07/08 11:38:08;;;;;;;7.40;2.30;;;;;;;37.07;19.91;99419.04;67614;1281;1016336;-72
2023/07/08 11:41:12;;;;;;;7.00;2.40;;;;;;;36.28;20.53;99416.83;67629;1281;1016976;-72
2023/07/08 11:44:15;;;;;;;7.80;2.50;;;;;;;36.48;20.67;99408.48;67621;1281;1016461;-72
2023/07/08 11:47:18;;;;;;;8.10;2.50;;;;;;;37.23;20.68;99404.79;67641;1281;1016706;-70
2023/07/08 11:50:21;;;;;;;6.20;2.30;;;;;;;37.72;21.39;99402.38;67562;1281;1016488;-70
2023/07/08 11:53:23;;;;;;;8.30;2.40;;;;;;;38.06;20.51;99400.04;67631;1281;1016579;-70
2023/07/08 11:56:27;;;;;;;9.20;2.40;;;;;;;40.11;17.96;99399.80;67578;1281;1016486;-72
2023/07/08 11:59:31;;;;;;;5.40;2.40;;;;;;;38.19;18.90;99408.56;67556;1281;1016864;-72
2023/07/08 12:02:34;;;;;;;4.60;2.40;;;;;;;36.94;19.47;99400.86;67520;1273;1016387;-73
2023/07/08 12:05:46;;;;;;;6.30;2.40;;;;;;;37.23;19.25;99399.82;67581;1281;1016215;-71
2023/07/08 12:08:49;;;;;;;8.00;2.50;;;;;;;37.47;20.00;99400.25;67521;1273;1016346;-72
2023/07/08 12:11:53;;;;;;;5.10;2.70;;;;;;;37.80;20.79;99390.30;67605;1281;1015669;-71
2023/07/08 12:14:56;;;;;;;6.80;2.60;;;;;;;38.04;20.05;99390.39;67623;1281;1016499;-69
2023/07/08 12:17:59;;;;;;;7.80;2.50;;;;;;;38.28;19.74;99392.34;67581;1281;1016385;-72
2023/07/08 12:21:02;;;;;;;6.40;2.50;;;;;;;37.70;19.74;99396.34;67600;1281;1016314;-71
2023/07/08 12:24:05;;;;;;;9.10;2.80;;;;;;;37.00;19.91;99391.64;67550;1281;1016541;-69
2023/07/08 12:27:08;;;;;;;5.60;2.30;;;;;;;37.18;20.11;99386.36;67579;1281;1016409;-73
2023/07/08 12:30:12;;;;;;;5.70;2.70;;;;;;;38.17;19.85;99379.86;67639;1281;1016173;-71
2023/07/08 12:33:15;;;;;;;7.10;2.50;;;;;;;38.91;19.74;99380.45;67585;1281;1016448;-69
2023/07/08 12:36:18;;;;;;;7.90;2.60;;;;;;;38.71;19.13;99379.81;67610;1281;1019810;-70
2023/07/08 12:39:21;;;;;;;7.40;2.30;;;;;;;38.57;19.27;99383.00;67619;1281;1018259;-70
2023/07/08 12:42:24;;;;;;;9.40;2.60;;;;;;;37.38;19.65;99390.25;67600;1281;1016445;-71
2023/07/08 12:45:26;;;;;;;7.30;2.50;;;;;;;37.94;19.96;99379.00;67610;1281;1016366;-71
2023/07/08 12:48:29;;;;;;;6.90;2.40;;;;;;;38.16;20.82;99374.31;67581;1281;1016446;-70
2023/07/08 12:51:34;;;;;;;8.50;2.60;;;;;;;38.49;20.24;99371.71;67633;1281;1018260;-70
2023/07/08 12:54:37;;;;;;;7.20;2.20;;;;;;;38.17;20.54;99369.41;67606;1281;1016524;-72
2023/07/08 12:57:41;;;;;;;8.60;2.70;;;;;;;38.64;20.09;99366.55;67609;1281;1016389;-69
2023/07/08 13:00:44;;;;;;;7.70;2.70;;;;;;;37.98;20.30;99364.65;67568;1281;1016499;-69
2023/07/08 13:03:49;;;;;;;6.30;2.70;;;;;;;37.53;20.63;99365.38;67583;1281;1016900;-69
2023/07/08 13:06:53;;;;;;;7.10;2.60;;;;;;;37.29;21.10;99364.16;67628;1281;1016397;-69
2023/07/08 13:09:56;;;;;;;6.30;2.60;;;;;;;37.66;20.48;99362.27;67579;1281;1017493;-69
2023/07/08 13:12:59;;;;;;;7.30;2.80;;;;;;;38.56;20.64;99358.98;67547;1281;1016188;-69
2023/07/08 13:16:02;;;;;;;9.00;2.60;;;;;;;38.51;20.02;99362.52;67486;1281;1015888;-69
2023/07/08 13:19:05;;;;;;;7.20;2.60;;;;;;;37.81;21.03;99354.58;67458;1281;1016856;-69
2023/07/08 13:22:08;;;;;;;8.00;3.00;;;;;;;38.56;20.18;99350.02;67428;1281;1016495;-69
2023/07/08 13:25:10;;;;;;;8.30;2.70;;;;;;;39.17;20.73;99346.94;67388;1281;1016113;-69
2023/07/08 13:28:13;;;;;;;6.00;2.50;;;;;;;40.13;20.57;99349.98;67473;1281;1016188;-69
2023/07/08 13:31:17;;;;;;;10.00;2.80;;;;;;;40.43;19.74;99347.19;67542;1281;1016369;-69
2023/07/08 13:34:20;;;;;;;7.90;2.70;;;;;;;40.23;20.19;99341.02;67543;1281;1016283;-69
2023/07/08 13:37:25;;;;;;;6.30;2.70;;;;;;;40.09;19.72;99341.38;67605;1281;1016410;-69
2023/07/08 13:40:28;;;;;;;11.00;2.70;;;;;;;40.02;20.05;99341.16;67638;1281;1018593;-70
2023/07/08 13:43:33;;;;;;;9.20;2.80;;;;;;;39.74;19.33;99345.53;67632;1281;1016017;-68
2023/07/08 13:46:39;;;;;;;6.00;2.90;;;;;;;38.58;19.56;99342.28;67632;1281;1016587;-69
2023/07/08 13:49:42;;;;;;;10.50;2.80;;;;;;;37.99;20.59;99343.04;67570;1281;1016787;-70
2023/07/08 13:52:46;;;;;;;7.40;2.80;;;;;;;37.78;20.05;99337.42;67592;1281;1016518;-70
2023/07/08 13:55:50;;;;;;;6.70;2.50;;;;;;;38.56;19.95;99335.41;67642;1281;1016827;-70
2023/07/08 13:58:53;;;;;;;6.30;2.50;;;;;;;38.79;19.67;99334.41;67603;1281;1016358;-70
2023/07/08 14:01:56;;;;;;;8.50;2.80;;;;;;;38.72;19.02;99331.63;67633;1281;1016336;-70